createdAt,value
2023-01-17T00:00:54.128Z,4.60
2023-01-17T00:03:33.481Z,4.60
2023-01-17T00:06:51.677Z,4.60
2023-01-17T00:10:23.243Z,4.40
2023-01-17T00:13:21.529Z,4.40
2023-01-17T00:20:02.795Z,4.30
2023-01-17T00:27:04.815Z,4.20
2023-01-17T00:33:37.250Z,4.20
2023-01-17T00:36:35.972Z,4.20
2023-01-17T00:39:22.487Z,4.20
2023-01-17T00:46:05.936Z,4.20
2023-01-17T00:49:27.042Z,4.20
2023-01-17T00:52:29.308Z,4.20
2023-01-17T00:55:41.090Z,4.10
2023-01-17T00:58:35.799Z,4.10
2023-01-17T01:01:40.520Z,4.00
2023-01-17T01:04:58.975Z,3.90
2023-01-17T01:07:59.946Z,3.80
2023-01-17T01:10:57.030Z,3.80
2023-01-17T01:13:51.041Z,3.70
2023-01-17T01:16:53.005Z,3.70
2023-01-17T01:20:00.191Z,3.70
2023-01-17T01:22:48.119Z,3.70
2023-01-17T01:26:01.388Z,3.70
2023-01-17T01:29:00.262Z,3.70
2023-01-17T01:32:00.890Z,3.70
2023-01-17T01:35:05.298Z,3.70
2023-01-17T01:37:42.033Z,3.70
2023-01-17T01:40:14.657Z,3.70
2023-01-17T01:43:06.258Z,3.70
2023-01-17T01:45:33.899Z,3.70
2023-01-17T01:48:21.788Z,3.70
2023-01-17T01:50:52.899Z,3.60
2023-01-17T01:53:23.188Z,3.60
2023-01-17T01:55:53.426Z,3.60
2023-01-17T01:58:29.261Z,3.60
2023-01-17T02:00:57.515Z,3.60
2023-01-17T02:03:30.629Z,3.60
2023-01-17T02:06:28.672Z,3.50
2023-01-17T02:09:04.344Z,3.50
2023-01-17T02:11:39.901Z,3.50
2023-01-17T02:14:09.066Z,3.50
2023-01-17T02:17:27.625Z,3.30
2023-01-17T02:20:56.451Z,3.00
2023-01-17T02:24:03.287Z,2.60
2023-01-17T02:31:06.599Z,1.90
2023-01-17T02:34:22.080Z,1.70
2023-01-17T02:42:16.322Z,1.50
2023-01-17T02:46:01.421Z,1.40
2023-01-17T02:48:41.127Z,1.40
2023-01-17T02:51:30.072Z,1.40
2023-01-17T02:54:27.974Z,1.40
2023-01-17T02:57:29.916Z,1.40
2023-01-17T03:00:36.014Z,1.50
2023-01-17T03:03:35.654Z,1.50
2023-01-17T03:06:16.668Z,1.50
2023-01-17T03:08:50.002Z,1.60
2023-01-17T03:11:28.566Z,1.70
2023-01-17T03:14:10.777Z,1.70
2023-01-17T03:16:42.080Z,1.70
2023-01-17T03:33:20.951Z,1.90
2023-01-17T03:36:09.987Z,1.90
2023-01-17T03:39:04.299Z,1.90
2023-01-17T03:41:57.883Z,2.00
2023-01-17T03:44:48.033Z,2.00
2023-01-17T03:47:53.615Z,2.10
2023-01-17T03:51:04.034Z,2.10
2023-01-17T03:57:11.838Z,2.10
2023-01-17T04:00:03.721Z,2.20
2023-01-17T04:02:47.210Z,2.20
2023-01-17T04:05:59.286Z,2.20
2023-01-17T04:09:15.012Z,2.20
2023-01-17T04:11:54.552Z,2.30
2023-01-17T04:14:33.734Z,2.30
2023-01-17T04:17:53.280Z,2.30
2023-01-17T04:21:05.752Z,2.30
2023-01-17T06:50:04.352Z,1.90
2023-01-17T06:52:31.358Z,1.90
2023-01-17T06:54:58.322Z,1.90
2023-01-17T06:57:25.397Z,1.90
2023-01-17T06:59:52.453Z,1.90
2023-01-17T07:02:19.542Z,1.90
2023-01-17T07:04:46.321Z,1.90
2023-01-17T07:07:13.361Z,2.00
2023-01-17T07:09:40.270Z,2.00
2023-01-17T07:12:07.726Z,2.00
2023-01-17T07:14:34.632Z,2.00
2023-01-17T07:17:01.503Z,2.00
2023-01-17T07:19:28.365Z,2.00
2023-01-17T07:21:55.959Z,2.00
2023-01-17T07:24:24.514Z,2.00
2023-01-17T07:26:52.191Z,2.00
2023-01-17T07:29:19.539Z,2.00
2023-01-17T07:31:59.110Z,2.00
2023-01-17T07:34:25.992Z,2.00
2023-01-17T07:36:57.493Z,2.10
2023-01-17T07:39:26.860Z,2.10
2023-01-17T07:41:54.682Z,2.00
2023-01-17T07:44:21.479Z,2.00
2023-01-17T07:46:48.384Z,2.00
2023-01-17T07:49:15.209Z,2.00
2023-01-17T07:51:42.214Z,2.00
2023-01-17T07:54:14.586Z,2.00
2023-01-17T07:56:47.758Z,2.00
2023-01-17T07:59:18.649Z,2.10
2023-01-17T08:01:49.347Z,2.00
2023-01-17T08:04:18.267Z,2.00
2023-01-17T08:06:48.876Z,2.00
2023-01-17T08:09:17.998Z,2.00
2023-01-17T08:11:48.218Z,2.00
2023-01-17T08:14:16.682Z,2.00
2023-01-17T08:16:45.496Z,2.00
2023-01-17T08:19:18.801Z,2.00
2023-01-17T08:21:56.309Z,2.10
2023-01-17T08:24:26.985Z,2.10
2023-01-17T08:27:01.064Z,2.10
2023-01-17T08:29:31.141Z,2.10
2023-01-17T08:32:00.061Z,2.10
2023-01-17T08:34:28.671Z,2.10
2023-01-17T08:36:57.782Z,2.10
2023-01-17T08:39:29.271Z,2.10
2023-01-17T08:42:03.632Z,2.00
2023-01-17T08:44:46.522Z,2.00
2023-01-17T08:47:17.718Z,2.00
2023-01-17T08:49:48.512Z,2.00
2023-01-17T08:52:23.538Z,2.00
2023-01-17T08:55:00.445Z,2.10
2023-01-17T08:57:36.266Z,2.20
2023-01-17T09:00:15.385Z,2.30
2023-01-17T09:02:55.525Z,2.40
2023-01-17T09:05:27.106Z,2.40
2023-01-17T09:08:00.895Z,2.50
2023-01-17T09:10:30.787Z,2.60
2023-01-17T09:13:00.935Z,2.60
2023-01-17T09:15:32.467Z,2.70
2023-01-17T09:18:02.170Z,2.70
2023-01-17T09:20:31.512Z,2.80
2023-01-17T09:23:04.921Z,2.80
2023-01-17T09:25:33.438Z,2.90
2023-01-17T09:28:02.691Z,2.90
2023-01-17T09:30:30.621Z,3.00
2023-01-17T09:32:59.459Z,3.30
2023-01-17T09:35:29.520Z,3.70
2023-01-17T09:37:59.815Z,4.10
2023-01-17T09:40:29.577Z,4.60
2023-01-17T09:43:07.269Z,5.10
2023-01-17T09:45:39.320Z,5.50
2023-01-17T09:48:37.322Z,5.90
2023-01-17T09:51:24.884Z,6.10
2023-01-17T09:54:08.700Z,6.50
2023-01-17T09:57:03.448Z,7.00
2023-01-17T10:00:06.022Z,7.20
2023-01-17T10:03:04.224Z,7.30
2023-01-17T10:05:47.369Z,7.50
2023-01-17T10:08:51.017Z,7.80
2023-01-17T10:12:01.721Z,7.70
2023-01-17T10:14:34.818Z,7.50
2023-01-17T10:17:43.290Z,7.00
2023-01-17T10:20:39.476Z,6.40
2023-01-17T10:23:38.441Z,5.90
2023-01-17T10:26:15.860Z,5.80
2023-01-17T10:28:51.505Z,5.50
2023-01-17T10:31:27.097Z,5.30
2023-01-17T10:34:09.842Z,5.20
2023-01-17T10:36:45.334Z,5.30
2023-01-17T10:39:23.387Z,5.60
2023-01-17T10:42:06.625Z,5.90
2023-01-17T10:45:29.356Z,5.90
2023-01-17T10:48:27.729Z,5.80
2023-01-17T10:51:28.903Z,5.70
2023-01-17T10:54:46.591Z,5.70
2023-01-17T10:57:22.716Z,6.30
2023-01-17T10:59:52.671Z,7.20
2023-01-17T11:02:34.374Z,7.70
2023-01-17T11:05:22.870Z,8.30
2023-01-17T11:08:08.983Z,8.80
2023-01-17T11:10:50.026Z,9.30
2023-01-17T11:13:38.987Z,8.90
2023-01-17T11:16:21.435Z,8.70
2023-01-17T11:19:30.561Z,8.50
2023-01-17T11:22:04.726Z,8.10
2023-01-17T11:24:51.585Z,7.70
2023-01-17T11:27:42.147Z,7.20
2023-01-17T11:30:19.962Z,6.80
2023-01-17T11:33:33.269Z,6.70
2023-01-17T11:36:08.693Z,6.70
2023-01-17T11:38:39.242Z,6.60
2023-01-17T11:41:38.913Z,6.70
2023-01-17T11:44:32.392Z,6.70
2023-01-17T11:47:21.511Z,6.60
2023-01-17T11:49:50.287Z,6.60
2023-01-17T11:52:33.733Z,6.60
2023-01-17T11:55:01.585Z,6.60
2023-01-17T11:57:36.144Z,6.50
2023-01-17T12:00:32.171Z,6.70
2023-01-17T12:03:25.427Z,6.80
2023-01-17T12:06:28.095Z,6.90
2023-01-17T12:09:12.266Z,6.80
2023-01-17T12:16:29.313Z,6.30
2023-01-17T12:19:25.841Z,6.00
2023-01-17T12:21:52.864Z,5.80
2023-01-17T12:24:57.554Z,5.70
2023-01-17T12:27:43.621Z,5.70
2023-01-17T12:30:41.171Z,5.70
2023-01-17T12:33:43.828Z,5.80
2023-01-17T12:36:52.223Z,6.40
2023-01-17T12:39:28.281Z,6.70
2023-01-17T12:42:13.751Z,7.20
2023-01-17T12:44:51.912Z,7.20
2023-01-17T12:47:23.354Z,7.40
2023-01-17T12:50:06.461Z,7.90
2023-01-17T12:53:12.281Z,8.20
2023-01-17T12:56:11.097Z,8.50
2023-01-17T12:59:20.696Z,8.40
2023-01-17T13:02:00.575Z,8.20
2023-01-17T13:04:57.430Z,7.90
2023-01-17T13:07:46.181Z,7.60
2023-01-17T13:10:41.809Z,7.30
2023-01-17T13:13:37.145Z,7.00
2023-01-17T13:16:33.105Z,7.10
2023-01-17T13:19:24.160Z,6.90
2023-01-17T13:21:58.202Z,6.70
2023-01-17T13:24:36.300Z,6.70
2023-01-17T13:27:38.675Z,7.40
2023-01-17T13:30:31.534Z,8.40
2023-01-17T13:33:43.346Z,9.40
2023-01-17T13:36:46.833Z,10.00
2023-01-17T13:39:32.623Z,10.50
2023-01-17T13:42:50.473Z,11.00
2023-01-17T13:45:29.372Z,11.00
2023-01-17T13:48:21.001Z,10.80
2023-01-17T13:51:11.806Z,10.20
2023-01-17T13:53:42.468Z,10.30
2023-01-17T13:56:20.895Z,10.90
2023-01-17T13:58:53.460Z,11.60
2023-01-17T14:01:47.620Z,11.90
2023-01-17T14:04:25.782Z,12.10
2023-01-17T14:06:59.995Z,11.80
2023-01-17T14:09:42.642Z,11.10
2023-01-17T14:12:28.692Z,10.20
2023-01-17T14:18:03.836Z,8.60
2023-01-17T14:20:49.980Z,8.10
2023-01-17T14:23:31.894Z,7.60
2023-01-17T14:26:17.801Z,7.30
2023-01-17T14:28:44.864Z,7.10
2023-01-17T14:31:14.004Z,6.90
2023-01-17T14:33:42.135Z,6.80
2023-01-17T14:36:23.471Z,6.80
2023-01-17T14:38:51.165Z,6.70
2023-01-17T14:41:24.641Z,6.70
2023-01-17T14:43:52.526Z,6.60
2023-01-17T14:46:32.302Z,6.60
2023-01-17T14:49:23.998Z,6.70
2023-01-17T14:52:06.210Z,6.70
2023-01-17T14:54:33.553Z,6.70
2023-01-17T14:57:35.685Z,7.10
2023-01-17T15:00:19.770Z,7.50
2023-01-17T15:02:48.996Z,8.20
2023-01-17T15:05:20.852Z,8.40
2023-01-17T15:07:56.163Z,8.10
2023-01-17T15:10:31.587Z,7.90
2023-01-17T15:13:09.009Z,7.50
2023-01-17T15:15:39.638Z,7.10
2023-01-17T15:18:25.970Z,6.70
2023-01-17T15:21:01.837Z,6.50
2023-01-17T15:23:36.854Z,6.40
2023-01-17T15:26:06.133Z,6.60
2023-01-17T15:28:34.997Z,6.90
2023-01-17T15:31:09.770Z,7.30
2023-01-17T15:33:41.288Z,7.20
2023-01-17T15:36:20.810Z,7.00
2023-01-17T15:39:00.321Z,6.60
2023-01-17T15:41:35.840Z,6.40
2023-01-17T15:44:04.602Z,6.10
2023-01-17T15:46:44.620Z,5.90
2023-01-17T15:49:24.935Z,5.60
2023-01-17T15:52:06.421Z,5.40
2023-01-17T15:54:56.473Z,5.30
2023-01-17T15:57:35.838Z,5.10
2023-01-17T16:00:28.736Z,5.00
2023-01-17T16:03:43.960Z,4.90
2023-01-17T16:06:59.820Z,4.80
2023-01-17T16:09:46.119Z,4.70
2023-01-17T16:12:29.564Z,4.60
2023-01-17T16:15:12.910Z,4.60
2023-01-17T16:17:54.332Z,4.50
2023-01-17T16:20:38.060Z,4.40
2023-01-17T16:23:26.568Z,4.30
2023-01-17T16:25:57.065Z,4.20
2023-01-17T16:28:29.134Z,4.20
2023-01-17T16:31:13.563Z,4.10
2023-01-17T16:33:58.153Z,4.00
2023-01-17T16:36:26.348Z,3.90
2023-01-17T16:38:53.966Z,3.80
2023-01-17T16:41:21.571Z,3.80
2023-01-17T16:43:59.128Z,3.70
2023-01-17T16:46:26.699Z,3.70
2023-01-17T16:48:53.881Z,3.60
2023-01-17T16:51:20.988Z,3.50
2023-01-17T16:53:48.348Z,3.50
2023-01-17T16:56:18.046Z,3.40
2023-01-17T16:58:45.203Z,3.40
2023-01-17T17:01:15.945Z,3.30
2023-01-17T17:03:44.351Z,3.20
2023-01-17T17:06:12.904Z,3.10
2023-01-17T17:08:40.097Z,3.10
2023-01-17T17:11:27.523Z,3.00
2023-01-17T17:13:54.636Z,2.90
2023-01-17T17:16:26.614Z,2.90
2023-01-17T17:19:06.156Z,2.80
2023-01-17T17:21:36.780Z,2.70
2023-01-17T17:24:04.584Z,2.60
2023-01-17T17:26:35.375Z,2.60
2023-01-17T17:29:05.020Z,2.50
2023-01-17T17:31:33.269Z,2.40
2023-01-17T17:34:02.707Z,2.40
2023-01-17T17:36:30.878Z,2.30
2023-01-17T17:38:59.133Z,2.30
2023-01-17T17:41:30.818Z,2.30
2023-01-17T17:44:01.346Z,2.20
2023-01-17T17:46:30.299Z,2.10
2023-01-17T17:48:58.894Z,2.10
2023-01-17T17:51:29.352Z,2.00
2023-01-17T17:54:04.153Z,1.90
2023-01-17T17:56:33.795Z,1.90
2023-01-17T17:59:02.875Z,1.80
2023-01-17T18:01:30.649Z,1.80
2023-01-17T18:04:02.905Z,1.70
2023-01-17T18:06:30.823Z,1.70
2023-01-17T18:08:57.993Z,1.60
2023-01-17T18:11:27.940Z,1.60
2023-01-17T18:13:58.842Z,1.60
2023-01-17T18:16:39.463Z,1.60
2023-01-17T18:19:16.048Z,1.50
2023-01-17T18:21:44.332Z,1.50
2023-01-17T18:24:16.477Z,1.40
2023-01-17T18:26:53.457Z,1.40
2023-01-17T18:29:34.509Z,1.30
2023-01-17T18:32:03.098Z,1.30
2023-01-17T18:34:30.280Z,1.20
2023-01-17T18:36:58.313Z,1.20
2023-01-17T18:39:28.833Z,1.10
2023-01-17T18:41:56.320Z,1.10
2023-01-17T18:44:24.276Z,1.00
2023-01-17T18:46:54.825Z,1.00
2023-01-17T18:49:22.253Z,1.00
2023-01-17T18:51:51.289Z,0.90
2023-01-17T18:54:20.388Z,0.90
2023-01-17T18:56:52.333Z,0.90
2023-01-17T18:59:20.283Z,0.80
2023-01-17T19:01:47.490Z,0.80
2023-01-17T19:04:17.307Z,0.80
2023-01-17T19:06:47.909Z,0.70
2023-01-17T19:09:16.975Z,0.70
2023-01-17T19:11:47.358Z,0.70
2023-01-17T19:14:15.707Z,0.60
2023-01-17T19:16:43.124Z,0.60
2023-01-17T19:19:15.683Z,0.60
2023-01-17T19:21:43.091Z,0.50
2023-01-17T19:24:13.173Z,0.50
2023-01-17T19:26:41.691Z,0.50
2023-01-17T19:29:09.254Z,0.40
2023-01-17T19:31:42.397Z,0.40
2023-01-17T19:34:10.427Z,0.40
2023-01-17T19:36:39.322Z,0.30
2023-01-17T19:39:12.182Z,0.30
2023-01-17T19:41:45.336Z,0.30
2023-01-17T19:44:14.376Z,0.30
2023-01-17T19:46:41.950Z,0.20
2023-01-17T19:49:10.474Z,0.20
2023-01-17T19:51:39.427Z,0.10
2023-01-17T19:54:08.472Z,0.10
2023-01-17T19:56:35.801Z,0.10
2023-01-17T19:59:03.114Z,0.10
2023-01-17T20:01:34.035Z,0.00
2023-01-17T20:04:03.793Z,0.00
2023-01-17T20:06:35.864Z,0.00
2023-01-17T20:09:05.156Z,0.00
2023-01-17T20:11:32.585Z,0.00
2023-01-17T20:14:00.418Z,0.00
2023-01-17T20:16:31.633Z,-0.10
2023-01-17T20:19:02.895Z,-0.10
2023-01-17T20:21:31.943Z,-0.10
2023-01-17T20:24:04.550Z,-0.20
2023-01-17T20:26:35.312Z,-0.20
2023-01-17T20:29:11.738Z,-0.30
2023-01-17T20:31:46.385Z,-0.30
2023-01-17T20:34:18.632Z,-0.30
2023-01-17T20:36:46.273Z,-0.30
2023-01-17T20:39:15.077Z,-0.40
2023-01-17T20:41:43.748Z,-0.40
2023-01-17T20:44:15.382Z,-0.40
2023-01-17T20:46:43.182Z,-0.50
2023-01-17T20:49:15.735Z,-0.50
2023-01-17T20:51:44.519Z,-0.50
2023-01-17T20:54:18.829Z,-0.50
2023-01-17T20:56:47.871Z,-0.50
2023-01-17T20:59:19.102Z,-0.50
2023-01-17T21:01:46.934Z,-0.60
2023-01-17T21:04:14.772Z,-0.60
2023-01-17T21:06:43.515Z,-0.60
2023-01-17T21:09:14.931Z,-0.60
2023-01-17T21:11:42.034Z,-0.70
2023-01-17T21:14:09.411Z,-0.70
2023-01-17T21:16:36.890Z,-0.70
2023-01-17T21:19:04.923Z,-0.70
2023-01-17T21:21:32.368Z,-0.70
2023-01-17T21:24:00.598Z,-0.70
2023-01-17T21:26:28.777Z,-0.80
2023-01-17T21:29:07.367Z,-0.80
2023-01-17T21:31:36.567Z,-0.80
2023-01-17T21:34:07.606Z,-0.80
2023-01-17T21:36:40.573Z,-0.90
2023-01-17T21:39:15.638Z,-0.80
2023-01-17T21:41:47.878Z,-0.90
2023-01-17T21:44:21.508Z,-0.90
2023-01-17T21:46:54.238Z,-0.90
2023-01-17T21:49:22.496Z,-1.00
2023-01-17T21:51:55.163Z,-1.00
2023-01-17T21:54:46.867Z,-1.00
2023-01-17T21:57:38.325Z,-1.00
2023-01-17T22:00:09.638Z,-1.00
2023-01-17T22:02:40.117Z,-1.10
2023-01-17T22:05:08.852Z,-1.10
2023-01-17T22:07:36.260Z,-1.10
2023-01-17T22:10:03.633Z,-1.10
2023-01-17T22:12:30.590Z,-1.10
2023-01-17T22:14:57.638Z,-1.20
2023-01-17T22:17:24.591Z,-1.20
2023-01-17T22:19:52.988Z,-1.20
2023-01-17T22:22:20.041Z,-1.20
2023-01-17T22:24:47.257Z,-1.30
2023-01-17T22:27:14.204Z,-1.30
2023-01-17T22:29:41.766Z,-1.30
2023-01-17T22:32:08.806Z,-1.30
2023-01-17T22:34:35.687Z,-1.30
2023-01-17T22:37:04.581Z,-1.30
2023-01-17T22:39:31.606Z,-1.40
2023-01-17T22:41:58.687Z,-1.40
2023-01-17T22:44:25.843Z,-1.40
2023-01-17T22:46:53.470Z,-1.40
2023-01-17T22:49:23.390Z,-1.40
2023-01-17T22:51:51.264Z,-1.50
2023-01-17T22:54:19.269Z,-1.50
2023-01-17T22:56:46.347Z,-1.50
2023-01-17T22:59:13.732Z,-1.50
2023-01-17T23:01:41.308Z,-1.60
2023-01-17T23:04:14.382Z,-1.60
2023-01-17T23:06:42.083Z,-1.60
2023-01-17T23:09:13.766Z,-1.60
2023-01-17T23:11:47.205Z,-1.60
2023-01-17T23:14:29.984Z,-1.60
2023-01-17T23:17:21.573Z,-1.70
2023-01-17T23:19:54.528Z,-1.70
2023-01-17T23:22:23.776Z,-1.70
2023-01-17T23:24:57.209Z,-1.70
2023-01-17T23:27:46.504Z,-1.70
2023-01-17T23:30:25.091Z,-1.80
2023-01-17T23:32:55.786Z,-1.80
2023-01-17T23:35:28.327Z,-1.80
2023-01-17T23:38:14.888Z,-1.80
2023-01-17T23:40:43.401Z,-1.80
2023-01-17T23:43:23.160Z,-1.80
2023-01-17T23:45:54.634Z,-1.80
2023-01-17T23:48:25.326Z,-1.80
2023-01-17T23:51:00.277Z,-1.80
2023-01-17T23:53:27.662Z,-1.80
2023-01-17T23:55:56.965Z,-1.80
2023-01-17T23:58:27.692Z,-1.80
